createdAt,value
2023-09-28T00:02:29.461Z,18.50
2023-09-28T00:05:17.263Z,18.50
2023-09-28T00:08:04.998Z,18.40
2023-09-28T00:10:52.738Z,18.40
2023-09-28T00:13:40.215Z,18.40
2023-09-28T00:16:27.745Z,18.30
2023-09-28T00:19:15.298Z,18.30
2023-09-28T00:22:02.848Z,18.30
2023-09-28T00:24:51.435Z,18.30
2023-09-28T00:27:40.299Z,18.30
2023-09-28T00:30:28.434Z,18.30
2023-09-28T00:33:15.758Z,18.20
2023-09-28T00:36:03.339Z,18.20
2023-09-28T00:38:50.608Z,18.10
2023-09-28T00:41:38.992Z,18.10
2023-09-28T00:44:45.734Z,18.10
2023-09-28T00:47:34.517Z,18.10
2023-09-28T00:50:22.937Z,18.10
2023-09-28T00:53:11.630Z,18.10
2023-09-28T00:55:59.279Z,18.10
2023-09-28T00:58:49.694Z,18.00
2023-09-28T01:01:37.139Z,18.00
2023-09-28T01:04:24.719Z,18.00
2023-09-28T01:07:14.121Z,18.00
2023-09-28T01:10:02.000Z,18.00
2023-09-28T01:12:49.943Z,18.00
2023-09-28T01:15:38.399Z,17.90
2023-09-28T01:18:25.917Z,18.00
2023-09-28T01:21:32.545Z,17.90
2023-09-28T01:24:21.304Z,17.90
2023-09-28T01:27:08.772Z,17.90
2023-09-28T01:29:57.688Z,17.90
2023-09-28T01:32:46.545Z,17.90
2023-09-28T01:35:34.007Z,17.90
2023-09-28T01:38:28.006Z,17.90
2023-09-28T01:41:16.278Z,17.90
2023-09-28T01:44:04.676Z,17.90
2023-09-28T01:46:52.223Z,17.90
2023-09-28T01:49:39.605Z,17.90
2023-09-28T01:52:27.223Z,17.90
2023-09-28T01:55:15.081Z,17.90
2023-09-28T01:58:04.635Z,17.90
2023-09-28T02:00:52.809Z,17.80
2023-09-28T02:03:40.902Z,17.80
2023-09-28T02:06:30.751Z,17.90
2023-09-28T02:09:19.104Z,17.80
2023-09-28T02:12:07.999Z,17.80
2023-09-28T02:14:56.736Z,17.80
2023-09-28T02:17:48.097Z,17.80
2023-09-28T02:20:35.792Z,17.80
2023-09-28T02:23:23.429Z,17.80
2023-09-28T02:26:11.314Z,17.70
2023-09-28T02:29:01.217Z,17.70
2023-09-28T02:31:49.662Z,17.70
2023-09-28T02:34:37.109Z,17.70
2023-09-28T02:37:24.421Z,17.70
2023-09-28T02:40:16.080Z,17.70
2023-09-28T02:43:03.508Z,17.70
2023-09-28T02:45:51.290Z,17.60
2023-09-28T02:48:39.004Z,17.60
2023-09-28T02:51:26.431Z,17.70
2023-09-28T02:54:13.896Z,17.60
2023-09-28T02:57:01.308Z,17.60
2023-09-28T02:59:48.658Z,17.60
2023-09-28T03:02:36.035Z,17.60
2023-09-28T03:05:24.453Z,17.50
2023-09-28T03:08:15.580Z,17.50
2023-09-28T03:11:03.611Z,17.50
2023-09-28T03:13:51.644Z,17.50
2023-09-28T03:16:40.823Z,17.50
2023-09-28T03:19:28.256Z,17.50
2023-09-28T03:22:16.258Z,17.40
2023-09-28T03:25:07.840Z,17.40
2023-09-28T03:27:56.594Z,17.40
2023-09-28T03:30:44.264Z,17.40
2023-09-28T03:33:31.761Z,17.40
2023-09-28T03:36:19.121Z,17.30
2023-09-28T03:39:07.954Z,17.30
2023-09-28T03:41:55.382Z,17.30
2023-09-28T03:44:43.321Z,17.30
2023-09-28T03:47:30.708Z,17.30
2023-09-28T03:50:18.316Z,17.30
2023-09-28T03:53:05.712Z,17.30
2023-09-28T03:55:53.136Z,17.30
2023-09-28T03:58:40.581Z,17.30
2023-09-28T04:01:28.130Z,17.20
2023-09-28T04:04:15.451Z,17.30
2023-09-28T04:07:02.831Z,17.20
2023-09-28T04:09:51.109Z,17.20
2023-09-28T04:12:38.679Z,17.20
2023-09-28T04:15:28.813Z,17.20
2023-09-28T04:18:16.216Z,17.20
2023-09-28T04:21:03.816Z,17.20
2023-09-28T04:23:51.212Z,17.20
2023-09-28T04:26:38.780Z,17.20
2023-09-28T04:29:26.260Z,17.20
2023-09-28T04:32:13.667Z,17.20
2023-09-28T04:35:01.563Z,17.20
2023-09-28T04:37:52.119Z,17.10
2023-09-28T04:40:39.612Z,17.20
2023-09-28T04:43:37.057Z,17.10
2023-09-28T04:46:24.463Z,17.10
2023-09-28T04:49:12.001Z,17.10
2023-09-28T04:52:00.207Z,17.10
2023-09-28T04:54:51.605Z,17.10
2023-09-28T04:57:39.322Z,17.10
2023-09-28T05:00:31.041Z,17.20
2023-09-28T05:03:18.437Z,17.20
2023-09-28T05:06:06.665Z,17.20
2023-09-28T05:08:54.051Z,17.20
2023-09-28T05:11:41.633Z,17.30
2023-09-28T05:14:29.121Z,17.30
2023-09-28T05:17:38.105Z,17.40
2023-09-28T05:20:26.613Z,17.30
2023-09-28T05:23:14.168Z,17.40
2023-09-28T05:26:02.355Z,17.40
2023-09-28T05:28:50.629Z,17.40
2023-09-28T05:31:38.150Z,17.50
2023-09-28T05:34:26.080Z,17.50
2023-09-28T05:37:27.169Z,17.60
2023-09-28T05:40:14.573Z,17.50
2023-09-28T05:43:01.884Z,17.60
2023-09-28T05:45:49.534Z,17.60
2023-09-28T05:48:38.061Z,17.70
2023-09-28T05:51:25.407Z,17.80
2023-09-28T05:54:12.753Z,17.90
2023-09-28T05:57:00.046Z,17.90
2023-09-28T05:59:47.534Z,18.00
2023-09-28T06:02:34.990Z,18.00
2023-09-28T06:05:32.107Z,18.10
2023-09-28T06:08:20.414Z,18.20
2023-09-28T06:11:15.080Z,18.30
2023-09-28T06:14:08.136Z,18.30
2023-09-28T06:16:56.307Z,18.40
2023-09-28T06:19:57.384Z,18.50
2023-09-28T06:22:45.725Z,18.50
2023-09-28T06:25:33.184Z,18.60
2023-09-28T06:28:22.517Z,18.60
2023-09-28T06:31:10.854Z,18.70
2023-09-28T06:33:58.326Z,18.80
2023-09-28T06:36:46.068Z,18.90
2023-09-28T06:39:33.484Z,19.00
2023-09-28T06:42:36.257Z,19.10
2023-09-28T06:45:24.561Z,19.20
2023-09-28T06:48:20.121Z,19.20
2023-09-28T06:51:08.132Z,19.30
2023-09-28T06:53:56.365Z,19.40
2023-09-28T06:56:43.803Z,19.40
2023-09-28T06:59:32.125Z,19.50
2023-09-28T07:02:20.605Z,19.60
2023-09-28T07:05:08.193Z,19.70
2023-09-28T07:07:56.731Z,19.80
2023-09-28T07:10:44.359Z,19.90
2023-09-28T07:13:31.822Z,19.90
2023-09-28T07:16:19.411Z,20.00
2023-09-28T07:19:07.640Z,20.10
2023-09-28T07:21:55.445Z,20.30
2023-09-28T07:24:42.892Z,20.50
2023-09-28T07:27:33.753Z,20.70
2023-09-28T07:30:21.855Z,20.80
2023-09-28T07:33:09.226Z,20.80
2023-09-28T07:35:56.938Z,20.80
2023-09-28T07:38:48.350Z,20.80
2023-09-28T07:41:36.124Z,20.80
2023-09-28T07:44:23.789Z,20.90
2023-09-28T07:47:11.510Z,21.00
2023-09-28T07:49:59.964Z,21.00
2023-09-28T07:55:49.062Z,21.10
2023-09-28T07:58:36.520Z,21.20
2023-09-28T08:01:23.993Z,21.30
2023-09-28T08:04:12.457Z,21.30
2023-09-28T08:06:59.849Z,21.40
2023-09-28T08:09:48.651Z,21.40
2023-09-28T08:12:36.060Z,21.40
2023-09-28T08:15:35.562Z,21.40
2023-09-28T08:18:24.195Z,21.50
2023-09-28T08:21:11.802Z,21.50
2023-09-28T08:23:59.892Z,21.60
2023-09-28T08:26:48.145Z,21.70
2023-09-28T08:29:36.314Z,21.70
2023-09-28T08:32:23.735Z,21.80
2023-09-28T08:35:12.583Z,21.90
2023-09-28T08:38:00.989Z,21.90
2023-09-28T08:40:50.690Z,22.00
2023-09-28T08:43:48.165Z,22.10
2023-09-28T08:49:33.894Z,22.10
2023-09-28T08:52:22.936Z,22.20
2023-09-28T08:55:13.354Z,22.30
2023-09-28T08:58:01.317Z,22.40
2023-09-28T09:00:48.739Z,22.50
2023-09-28T09:03:37.380Z,22.60
2023-09-28T09:06:26.231Z,22.70
2023-09-28T09:09:19.469Z,22.80
2023-09-28T09:12:12.890Z,22.80
2023-09-28T09:15:00.274Z,22.90
2023-09-28T09:17:47.828Z,22.90
2023-09-28T09:20:35.240Z,22.90
2023-09-28T09:23:25.106Z,23.10
2023-09-28T09:26:19.426Z,23.20
2023-09-28T09:29:07.268Z,23.30
2023-09-28T09:31:54.806Z,23.40
2023-09-28T09:34:42.158Z,23.40
2023-09-28T09:37:30.109Z,23.50
2023-09-28T09:40:17.560Z,23.60
2023-09-28T09:43:09.836Z,23.70
2023-09-28T09:45:57.674Z,23.80
2023-09-28T09:48:45.807Z,23.80
2023-09-28T09:51:35.535Z,23.80
2023-09-28T09:54:23.000Z,23.80
2023-09-28T09:57:15.878Z,23.90
2023-09-28T10:00:06.194Z,23.90
2023-09-28T10:02:55.496Z,24.00
2023-09-28T10:05:43.234Z,24.20
2023-09-28T10:08:34.141Z,24.30
2023-09-28T10:11:22.225Z,24.40
2023-09-28T10:14:10.146Z,24.50
2023-09-28T10:16:57.979Z,24.60
2023-09-28T10:19:46.738Z,24.60
2023-09-28T10:22:34.697Z,24.70
2023-09-28T10:25:22.191Z,24.90
2023-09-28T10:28:09.625Z,24.90
2023-09-28T10:31:06.299Z,25.00
2023-09-28T10:34:04.636Z,25.10
2023-09-28T10:37:12.562Z,25.10
2023-09-28T10:40:01.440Z,25.20
2023-09-28T10:43:06.698Z,25.30
2023-09-28T10:45:54.315Z,25.30
2023-09-28T10:48:46.965Z,25.30
2023-09-28T10:51:34.855Z,25.40
2023-09-28T10:54:22.312Z,25.50
2023-09-28T10:57:10.988Z,25.50
2023-09-28T11:00:08.723Z,25.50
2023-09-28T11:02:56.251Z,25.60
2023-09-28T11:05:44.169Z,25.60
2023-09-28T11:08:32.345Z,25.70
2023-09-28T11:11:22.995Z,25.70
2023-09-28T11:14:13.813Z,25.80
2023-09-28T11:17:01.254Z,25.80
2023-09-28T11:19:49.945Z,25.80
2023-09-28T11:22:38.456Z,25.80
2023-09-28T11:25:44.734Z,25.90
2023-09-28T11:28:33.240Z,26.00
2023-09-28T11:31:20.690Z,26.00
2023-09-28T11:34:09.864Z,26.00
2023-09-28T11:36:59.227Z,26.00
2023-09-28T11:39:46.695Z,26.10
2023-09-28T11:42:34.128Z,26.20
2023-09-28T11:45:28.278Z,26.20
2023-09-28T11:48:21.323Z,26.20
2023-09-28T11:51:10.201Z,26.30
2023-09-28T11:53:57.928Z,26.30
2023-09-28T11:56:52.729Z,26.30
2023-09-28T11:59:40.304Z,26.40
2023-09-28T12:02:27.916Z,26.40
2023-09-28T12:05:16.391Z,26.30
2023-09-28T12:08:04.012Z,26.30
2023-09-28T12:10:51.532Z,26.30
2023-09-28T12:13:39.480Z,26.40
2023-09-28T12:16:28.069Z,26.40
2023-09-28T12:19:15.604Z,26.40
2023-09-28T12:22:05.047Z,26.40
2023-09-28T12:24:52.423Z,26.40
2023-09-28T12:27:40.002Z,26.40
2023-09-28T12:30:27.876Z,26.40
2023-09-28T12:33:17.015Z,26.40
2023-09-28T12:36:05.025Z,26.40
2023-09-28T12:38:53.436Z,26.40
2023-09-28T12:41:41.499Z,26.40
2023-09-28T12:44:29.970Z,26.30
2023-09-28T12:47:22.697Z,26.30
2023-09-28T12:50:12.843Z,26.40
2023-09-28T12:53:05.826Z,26.40
2023-09-28T12:56:14.170Z,26.30
2023-09-28T12:59:01.684Z,26.40
2023-09-28T13:01:49.514Z,26.40
2023-09-28T13:04:37.112Z,26.40
2023-09-28T13:07:24.699Z,26.50
2023-09-28T13:10:30.008Z,26.50
2023-09-28T13:13:17.495Z,26.50
2023-09-28T13:16:07.170Z,26.50
2023-09-28T13:18:56.788Z,26.50
2023-09-28T13:21:44.301Z,26.50
2023-09-28T13:24:35.402Z,26.50
2023-09-28T13:27:23.389Z,26.50
2023-09-28T13:30:13.534Z,26.50
2023-09-28T13:33:01.150Z,26.50
2023-09-28T13:35:48.826Z,26.50
2023-09-28T13:38:36.822Z,26.40
2023-09-28T13:41:27.928Z,26.40
2023-09-28T13:44:18.857Z,26.40
2023-09-28T13:47:07.833Z,26.40
2023-09-28T13:49:56.571Z,26.40
2023-09-28T13:52:47.091Z,26.40
2023-09-28T13:55:39.714Z,26.40
2023-09-28T13:58:28.012Z,26.40
2023-09-28T14:01:15.387Z,26.40
2023-09-28T14:04:02.911Z,26.30
2023-09-28T14:06:51.084Z,26.40
2023-09-28T14:09:38.538Z,26.30
2023-09-28T14:12:26.695Z,26.30
2023-09-28T14:15:14.069Z,26.30
2023-09-28T14:18:01.515Z,26.30
2023-09-28T14:20:50.607Z,26.20
2023-09-28T14:23:44.320Z,26.30
2023-09-28T14:26:31.709Z,26.20
2023-09-28T14:29:19.492Z,26.20
2023-09-28T14:32:06.922Z,26.10
2023-09-28T14:34:55.977Z,26.10
2023-09-28T14:37:45.191Z,26.10
2023-09-28T14:40:32.573Z,26.10
2023-09-28T14:43:19.908Z,26.10
2023-09-28T14:46:07.397Z,26.00
2023-09-28T14:48:54.837Z,26.00
2023-09-28T14:51:42.486Z,25.90
2023-09-28T14:54:30.128Z,25.90
2023-09-28T14:57:18.444Z,25.90
2023-09-28T15:00:14.036Z,25.90
2023-09-28T15:03:03.099Z,25.80
2023-09-28T15:05:51.610Z,25.70
2023-09-28T15:08:39.136Z,25.70
2023-09-28T15:11:26.523Z,25.70
2023-09-28T15:14:13.987Z,25.60
2023-09-28T15:17:01.422Z,25.60
2023-09-28T15:19:48.836Z,25.50
2023-09-28T15:22:37.051Z,25.50
2023-09-28T15:25:24.456Z,25.40
2023-09-28T15:28:25.981Z,25.40
2023-09-28T15:31:13.322Z,25.30
2023-09-28T15:34:00.809Z,25.20
2023-09-28T15:36:49.373Z,25.20
2023-09-28T15:39:38.120Z,25.10
2023-09-28T15:42:25.882Z,25.10
2023-09-28T15:45:16.771Z,25.00
2023-09-28T15:48:06.575Z,24.90
2023-09-28T15:51:01.591Z,24.90
2023-09-28T15:53:49.177Z,24.70
2023-09-28T15:56:38.531Z,24.70
2023-09-28T15:59:26.378Z,24.70
2023-09-28T16:02:13.950Z,24.60
2023-09-28T16:05:01.488Z,24.50
2023-09-28T16:07:49.081Z,24.40
2023-09-28T16:10:36.448Z,24.30
2023-09-28T16:13:23.843Z,24.20
2023-09-28T16:16:11.287Z,24.20
2023-09-28T16:18:59.387Z,24.10
2023-09-28T16:21:46.854Z,24.00
2023-09-28T16:24:34.679Z,23.90
2023-09-28T16:27:22.205Z,23.80
2023-09-28T16:30:09.967Z,23.70
2023-09-28T16:32:57.593Z,23.60
2023-09-28T16:35:45.064Z,23.60
2023-09-28T16:38:32.610Z,23.50
2023-09-28T16:41:20.062Z,23.40
2023-09-28T16:44:08.561Z,23.30
2023-09-28T16:46:56.231Z,23.10
2023-09-28T16:49:43.638Z,23.00
2023-09-28T16:52:31.040Z,22.90
2023-09-28T16:55:18.454Z,22.90
2023-09-28T16:58:09.786Z,22.80
2023-09-28T17:00:59.043Z,22.70
2023-09-28T17:03:46.476Z,22.50
2023-09-28T17:07:20.329Z,22.50
2023-09-28T17:10:08.202Z,22.40
2023-09-28T17:12:55.897Z,22.20
2023-09-28T17:15:46.305Z,22.20
2023-09-28T17:18:34.142Z,22.10
2023-09-28T17:21:21.872Z,22.00
2023-09-28T17:24:09.470Z,22.00
2023-09-28T17:27:17.374Z,21.80
2023-09-28T17:30:11.902Z,21.80
2023-09-28T17:32:59.581Z,21.70
2023-09-28T17:35:47.189Z,21.70
2023-09-28T17:38:34.722Z,21.50
2023-09-28T17:41:22.589Z,21.50
2023-09-28T17:44:10.088Z,21.40
2023-09-28T17:46:57.497Z,21.40
2023-09-28T17:49:45.034Z,21.30
2023-09-28T17:52:32.474Z,21.30
2023-09-28T17:55:19.968Z,21.20
2023-09-28T17:58:07.386Z,21.20
2023-09-28T18:00:54.786Z,21.20
2023-09-28T18:03:42.153Z,21.10
2023-09-28T18:06:36.490Z,21.10
2023-09-28T18:09:25.309Z,21.10
2023-09-28T18:12:12.690Z,21.00
2023-09-28T18:15:02.568Z,21.00
2023-09-28T18:17:52.390Z,21.00
2023-09-28T18:20:39.815Z,20.90
2023-09-28T18:23:42.635Z,20.80
2023-09-28T18:26:30.218Z,20.80
2023-09-28T18:29:17.792Z,20.80
2023-09-28T18:32:06.000Z,20.80
2023-09-28T18:34:53.419Z,20.70
2023-09-28T18:37:43.004Z,20.70
2023-09-28T18:40:30.698Z,20.70
2023-09-28T18:43:18.216Z,20.60
2023-09-28T18:46:05.575Z,20.60
2023-09-28T18:48:54.052Z,20.60
2023-09-28T18:51:41.583Z,20.50
2023-09-28T18:54:28.975Z,20.50
2023-09-28T18:57:16.592Z,20.50
2023-09-28T19:00:05.861Z,20.40
2023-09-28T19:02:53.378Z,20.40
2023-09-28T19:05:40.847Z,20.30
2023-09-28T19:08:28.399Z,20.30
2023-09-28T19:11:16.280Z,20.30
2023-09-28T19:14:03.663Z,20.20
2023-09-28T19:16:53.592Z,20.20
2023-09-28T19:19:41.302Z,20.20
2023-09-28T19:22:29.588Z,20.10
2023-09-28T19:25:17.099Z,20.10
2023-09-28T19:28:05.253Z,20.00
2023-09-28T19:30:53.157Z,20.00
2023-09-28T19:33:45.321Z,19.90
2023-09-28T19:36:32.680Z,19.90
2023-09-28T19:39:21.281Z,19.90
2023-09-28T19:42:10.717Z,19.80
2023-09-28T19:44:58.063Z,19.80
2023-09-28T19:47:46.076Z,19.80
2023-09-28T19:50:34.903Z,19.70
2023-09-28T19:53:22.735Z,19.70
2023-09-28T19:56:32.788Z,19.60
2023-09-28T19:59:20.186Z,19.60
2023-09-28T20:02:07.591Z,19.50
2023-09-28T20:04:55.012Z,19.50
2023-09-28T20:07:43.360Z,19.50
2023-09-28T20:10:31.143Z,19.40
2023-09-28T20:13:18.573Z,19.40
2023-09-28T20:16:06.347Z,19.40
2023-09-28T20:18:54.707Z,19.30
2023-09-28T20:21:42.144Z,19.30
2023-09-28T20:24:40.917Z,19.30
2023-09-28T20:27:28.358Z,19.30
2023-09-28T20:30:17.569Z,19.20
2023-09-28T20:33:05.749Z,19.20
2023-09-28T20:35:53.299Z,19.20
2023-09-28T20:38:40.878Z,19.10
2023-09-28T20:41:28.294Z,19.10
2023-09-28T20:44:15.666Z,19.10
2023-09-28T20:47:03.186Z,19.00
2023-09-28T20:49:50.864Z,19.00
2023-09-28T20:52:38.147Z,19.00
2023-09-28T20:55:26.031Z,18.90
2023-09-28T20:58:16.109Z,18.90
2023-09-28T21:01:09.159Z,18.90
2023-09-28T21:03:56.757Z,18.90
2023-09-28T21:06:44.382Z,18.80
2023-09-28T21:09:31.986Z,18.80
2023-09-28T21:12:19.389Z,18.80
2023-09-28T21:15:09.424Z,18.70
2023-09-28T21:17:56.887Z,18.70
2023-09-28T21:20:45.208Z,18.70
2023-09-28T21:23:32.713Z,18.70
2023-09-28T21:26:21.192Z,18.60
2023-09-28T21:29:08.856Z,18.60
2023-09-28T21:31:56.354Z,18.60
2023-09-28T21:34:43.707Z,18.60
2023-09-28T21:37:31.262Z,18.50
2023-09-28T21:40:18.647Z,18.50
2023-09-28T21:43:06.930Z,18.50
2023-09-28T21:45:57.059Z,18.40
2023-09-28T21:48:44.373Z,18.40
2023-09-28T21:51:31.881Z,18.40
2023-09-28T21:54:19.205Z,18.30
2023-09-28T21:57:06.911Z,18.30
2023-09-28T21:59:54.243Z,18.30
2023-09-28T22:02:41.780Z,18.30
2023-09-28T22:05:30.690Z,18.20
2023-09-28T22:08:18.140Z,18.20
2023-09-28T22:11:06.933Z,18.20
2023-09-28T22:13:54.288Z,18.20
2023-09-28T22:16:41.731Z,18.10
2023-09-28T22:19:29.297Z,18.10
2023-09-28T22:22:16.706Z,18.10
2023-09-28T22:25:04.384Z,18.00
2023-09-28T22:27:51.672Z,18.00
2023-09-28T22:30:39.012Z,17.90
2023-09-28T22:33:26.510Z,17.90
2023-09-28T22:36:14.001Z,17.90
2023-09-28T22:39:01.407Z,17.90
2023-09-28T22:41:48.756Z,17.90
2023-09-28T22:44:36.114Z,17.90
2023-09-28T22:47:23.723Z,17.80
2023-09-28T22:50:12.377Z,17.80
2023-09-28T22:52:59.810Z,17.80
2023-09-28T22:55:47.192Z,17.70
2023-09-28T22:58:34.708Z,17.70
2023-09-28T23:01:45.576Z,17.60
2023-09-28T23:04:36.582Z,17.60
2023-09-28T23:07:23.922Z,17.60
2023-09-28T23:10:13.305Z,17.60
2023-09-28T23:13:02.244Z,17.50
2023-09-28T23:15:51.009Z,17.60
2023-09-28T23:18:38.461Z,17.60
2023-09-28T23:21:27.006Z,17.60
2023-09-28T23:24:35.791Z,17.50
2023-09-28T23:27:23.440Z,17.50
2023-09-28T23:30:13.799Z,17.50
2023-09-28T23:33:01.213Z,17.50
2023-09-28T23:35:48.641Z,17.50
2023-09-28T23:38:36.506Z,17.50
2023-09-28T23:41:23.955Z,17.50
2023-09-28T23:44:13.747Z,17.50
2023-09-28T23:47:01.816Z,17.40
2023-09-28T23:49:49.148Z,17.40
2023-09-28T23:52:37.586Z,17.40
2023-09-28T23:55:25.793Z,17.40
2023-09-28T23:58:13.440Z,17.30
